createdAt,value
2022-10-23T00:00:08.586Z,2.90
2022-10-23T00:00:20.628Z,3.33
2022-10-23T00:00:33.102Z,3.40
2022-10-23T00:00:45.206Z,3.30
2022-10-23T00:00:57.161Z,3.25
2022-10-23T00:01:17.711Z,3.10
2022-10-23T00:01:41.004Z,3.15
2022-10-23T00:01:52.943Z,3.40
2022-10-23T00:02:04.998Z,3.30
2022-10-23T00:02:17.048Z,3.40
2022-10-23T00:02:29.171Z,3.30
2022-10-23T00:02:41.671Z,3.05
2022-10-23T00:02:54.789Z,3.03
2022-10-23T00:03:06.827Z,3.30
2022-10-23T00:03:18.772Z,3.40
2022-10-23T00:03:30.708Z,3.30
2022-10-23T00:03:43.160Z,3.50
2022-10-23T00:04:00.215Z,3.55
2022-10-23T00:04:21.610Z,3.20
2022-10-23T00:04:33.550Z,3.05
2022-10-23T00:04:45.475Z,3.15
2022-10-23T00:04:57.383Z,3.10
2022-10-23T00:05:09.440Z,3.10
2022-10-23T00:05:22.590Z,3.15
2022-10-23T00:05:34.524Z,3.22
2022-10-23T00:05:46.474Z,3.25
2022-10-23T00:05:58.465Z,3.40
2022-10-23T00:06:11.653Z,3.20
2022-10-23T00:06:25.005Z,2.92
2022-10-23T00:06:37.150Z,2.88
2022-10-23T00:06:49.668Z,3.13
2022-10-23T00:07:01.583Z,3.33
2022-10-23T00:07:13.536Z,3.08
2022-10-23T00:07:25.562Z,3.17
2022-10-23T00:07:37.682Z,3.38
2022-10-23T00:07:54.714Z,3.83
2022-10-23T00:08:07.082Z,3.80
2022-10-23T00:08:19.016Z,3.47
2022-10-23T00:08:31.050Z,3.22
2022-10-23T00:08:43.727Z,3.38
2022-10-23T00:08:56.371Z,3.30
2022-10-23T00:09:09.731Z,3.20
2022-10-23T00:09:23.676Z,3.10
2022-10-23T00:09:35.630Z,3.33
2022-10-23T00:09:47.600Z,3.20
2022-10-23T00:09:59.526Z,3.08
2022-10-23T00:10:11.652Z,3.10
2022-10-23T00:10:25.368Z,2.92
2022-10-23T00:10:41.859Z,3.00
2022-10-23T00:10:53.798Z,3.23
2022-10-23T00:11:21.904Z,3.03
2022-10-23T00:11:35.177Z,2.95
2022-10-23T00:11:48.550Z,2.97
2022-10-23T00:12:00.476Z,3.00
2022-10-23T00:12:12.424Z,3.10
2022-10-23T00:12:24.356Z,3.15
2022-10-23T00:12:36.316Z,3.30
2022-10-23T00:12:49.253Z,3.17
2022-10-23T00:13:01.317Z,3.10
2022-10-23T00:13:13.246Z,3.13
2022-10-23T00:13:25.254Z,3.10
2022-10-23T00:13:37.714Z,2.92
2022-10-23T00:13:50.763Z,3.00
2022-10-23T00:14:05.882Z,2.90
2022-10-23T00:14:21.266Z,2.70
2022-10-23T00:14:33.299Z,2.58
2022-10-23T00:14:45.238Z,2.70
2022-10-23T00:14:57.216Z,2.85
2022-10-23T00:15:09.590Z,2.92
2022-10-23T00:15:23.035Z,2.90
2022-10-23T00:15:36.520Z,2.75
2022-10-23T00:15:48.443Z,2.78
2022-10-23T00:16:00.685Z,3.03
2022-10-23T00:16:12.653Z,3.10
2022-10-23T00:16:24.593Z,3.13
2022-10-23T00:16:37.041Z,3.10
2022-10-23T00:16:48.968Z,3.03
2022-10-23T00:17:00.882Z,2.95
2022-10-23T00:17:12.936Z,2.97
2022-10-23T00:17:24.945Z,2.97
2022-10-23T00:17:36.853Z,3.10
2022-10-23T00:17:49.394Z,3.10
2022-10-23T00:18:01.461Z,3.00
2022-10-23T00:18:13.422Z,3.00
2022-10-23T00:18:25.353Z,3.10
2022-10-23T00:18:38.237Z,3.10
2022-10-23T00:18:50.743Z,2.90
2022-10-23T00:19:03.502Z,2.90
2022-10-23T00:19:15.599Z,2.80
2022-10-23T00:19:27.498Z,2.95
2022-10-23T00:19:39.447Z,3.17
2022-10-23T00:19:51.378Z,3.25
2022-10-23T00:20:04.317Z,3.08
2022-10-23T00:20:17.055Z,2.97
2022-10-23T00:20:28.992Z,3.00
2022-10-23T00:20:40.886Z,3.10
2022-10-23T00:20:52.849Z,2.92
2022-10-23T00:21:06.605Z,2.90
2022-10-23T00:21:18.607Z,2.92
2022-10-23T00:21:30.576Z,3.10
2022-10-23T00:21:42.771Z,3.08
2022-10-23T00:21:54.719Z,3.00
2022-10-23T00:22:08.547Z,2.92
2022-10-23T00:22:20.755Z,3.10
2022-10-23T00:22:32.696Z,3.13
2022-10-23T00:22:44.875Z,3.15
2022-10-23T00:22:56.767Z,3.10
2022-10-23T00:23:08.730Z,3.05
2022-10-23T00:23:20.692Z,2.85
2022-10-23T00:23:32.656Z,2.90
2022-10-23T00:23:45.305Z,2.90
2022-10-23T00:23:57.418Z,3.10
2022-10-23T00:24:26.405Z,2.80
2022-10-23T00:24:38.285Z,2.80
2022-10-23T00:24:50.282Z,2.80
2022-10-23T00:25:06.195Z,2.60
2022-10-23T00:25:18.577Z,2.30
2022-10-23T00:25:30.586Z,2.42
2022-10-23T00:25:42.639Z,2.58
2022-10-23T00:25:54.602Z,2.60
2022-10-23T00:26:08.206Z,2.75
2022-10-23T00:26:20.589Z,2.80
2022-10-23T00:26:32.614Z,2.83
2022-10-23T00:26:44.793Z,2.88
2022-10-23T00:26:56.701Z,2.88
2022-10-23T00:27:08.974Z,2.80
2022-10-23T00:27:20.895Z,2.72
2022-10-23T00:27:33.385Z,2.60
2022-10-23T00:27:45.454Z,2.60
2022-10-23T00:27:57.369Z,2.67
2022-10-23T00:28:09.344Z,2.80
2022-10-23T00:28:21.393Z,3.08
2022-10-23T00:28:34.082Z,3.00
2022-10-23T00:28:50.093Z,2.88
2022-10-23T00:29:02.076Z,2.75
2022-10-23T00:29:13.973Z,2.80
2022-10-23T00:29:28.037Z,2.75
2022-10-23T00:29:39.929Z,2.80
2022-10-23T00:29:51.877Z,2.90
2022-10-23T00:30:04.981Z,2.90
2022-10-23T00:30:16.886Z,3.13
2022-10-23T00:30:28.804Z,3.20
2022-10-23T00:30:40.808Z,3.00
2022-10-23T00:30:52.795Z,2.72
2022-10-23T00:31:05.913Z,2.78
2022-10-23T00:31:19.836Z,2.80
2022-10-23T00:31:32.290Z,2.90
2022-10-23T00:31:44.160Z,3.00
2022-10-23T00:31:56.105Z,3.00
2022-10-23T00:32:08.006Z,3.08
2022-10-23T00:32:19.962Z,3.00
2022-10-23T00:32:50.452Z,3.10
2022-10-23T00:33:02.359Z,3.10
2022-10-23T00:33:17.342Z,3.05
2022-10-23T00:33:29.437Z,3.00
2022-10-23T00:33:42.708Z,2.92
2022-10-23T00:33:57.375Z,2.70
2022-10-23T00:34:09.346Z,2.70
2022-10-23T00:34:23.720Z,2.85
2022-10-23T00:34:35.698Z,3.00
2022-10-23T00:34:50.525Z,3.30
2022-10-23T00:35:05.363Z,3.15
2022-10-23T00:35:20.290Z,2.90
2022-10-23T00:35:34.703Z,2.85
2022-10-23T00:35:49.749Z,2.95
2022-10-23T00:36:08.166Z,3.20
2022-10-23T00:36:21.862Z,3.05
2022-10-23T00:36:34.331Z,2.90
2022-10-23T00:36:46.262Z,2.90
2022-10-23T00:36:58.204Z,2.80
2022-10-23T00:37:13.217Z,2.63
2022-10-23T00:37:25.224Z,2.72
2022-10-23T00:37:37.170Z,2.83
2022-10-23T00:37:52.227Z,2.72
2022-10-23T00:38:07.218Z,2.80
2022-10-23T00:38:19.335Z,2.92
2022-10-23T00:38:31.240Z,2.95
2022-10-23T00:38:43.838Z,3.05
2022-10-23T00:38:55.795Z,2.83
2022-10-23T00:39:07.844Z,2.80
2022-10-23T00:39:22.514Z,2.85
2022-10-23T00:39:34.530Z,3.05
2022-10-23T00:39:50.930Z,3.05
2022-10-23T00:40:04.961Z,3.10
2022-10-23T00:40:17.022Z,3.10
2022-10-23T00:40:28.941Z,3.00
2022-10-23T00:40:42.248Z,3.00
2022-10-23T00:40:54.232Z,3.20
2022-10-23T00:41:08.342Z,3.10
2022-10-23T00:41:28.483Z,3.25
2022-10-23T00:41:40.487Z,3.10
2022-10-23T00:41:52.740Z,2.90
2022-10-23T00:42:04.751Z,2.72
2022-10-23T00:42:18.365Z,2.85
2022-10-23T00:42:30.318Z,3.00
2022-10-23T00:42:42.632Z,3.10
2022-10-23T00:42:54.674Z,3.08
2022-10-23T00:43:07.183Z,3.17
2022-10-23T00:43:21.231Z,3.00
2022-10-23T00:43:33.924Z,2.92
2022-10-23T00:44:03.238Z,3.05
2022-10-23T00:44:17.612Z,3.03
2022-10-23T00:44:29.448Z,3.03
2022-10-23T00:44:41.306Z,2.90
2022-10-23T00:44:53.247Z,2.85
2022-10-23T00:45:25.559Z,2.83
2022-10-23T00:45:37.470Z,2.75
2022-10-23T00:45:49.553Z,2.95
2022-10-23T00:46:02.041Z,3.03
2022-10-23T00:46:13.995Z,2.97
2022-10-23T00:46:26.140Z,3.00
2022-10-23T00:46:39.253Z,2.97
2022-10-23T00:46:51.244Z,3.00
2022-10-23T00:47:03.209Z,3.20
2022-10-23T00:47:15.386Z,2.95
2022-10-23T00:47:27.358Z,2.78
2022-10-23T00:47:42.194Z,2.58
2022-10-23T00:47:55.224Z,3.10
2022-10-23T00:48:07.143Z,3.28
2022-10-23T00:48:19.940Z,3.10
2022-10-23T00:48:31.891Z,3.28
2022-10-23T00:48:43.894Z,3.50
2022-10-23T00:48:57.048Z,3.75
2022-10-23T00:49:09.672Z,5.28
2022-10-23T00:49:22.979Z,5.70
2022-10-23T00:49:35.593Z,5.03
2022-10-23T00:49:48.087Z,4.63
2022-10-23T00:50:01.620Z,5.85
2022-10-23T00:50:13.821Z,7.97
2022-10-23T00:50:26.565Z,8.07
2022-10-23T00:50:38.705Z,7.75
2022-10-23T00:50:51.070Z,7.78
2022-10-23T00:51:03.105Z,7.57
2022-10-23T00:51:15.086Z,7.97
2022-10-23T00:51:31.389Z,8.65
2022-10-23T00:51:47.978Z,9.50
2022-10-23T00:52:04.481Z,9.40
2022-10-23T00:52:16.484Z,7.80
2022-10-23T00:52:29.755Z,7.90
2022-10-23T00:52:48.846Z,8.82
2022-10-23T00:53:03.203Z,9.27
2022-10-23T00:53:16.857Z,8.57
2022-10-23T00:53:29.040Z,8.40
2022-10-23T00:53:43.219Z,8.30
2022-10-23T00:54:06.710Z,8.20
2022-10-23T00:54:37.857Z,6.25
2022-10-23T00:54:49.938Z,6.80
2022-10-23T00:55:02.173Z,6.68
2022-10-23T00:55:15.383Z,6.65
2022-10-23T00:55:28.388Z,7.47
2022-10-23T00:55:46.798Z,8.52
2022-10-23T00:55:59.890Z,8.57
2022-10-23T00:56:11.866Z,8.25
2022-10-23T00:56:25.857Z,7.35
2022-10-23T00:56:41.871Z,6.47
2022-10-23T00:56:58.433Z,5.18
2022-10-23T00:57:15.363Z,5.32
2022-10-23T00:57:46.626Z,7.00
2022-10-23T00:57:59.032Z,6.78
2022-10-23T00:58:11.308Z,7.05
2022-10-23T00:58:23.258Z,7.22
2022-10-23T00:58:35.189Z,7.28
2022-10-23T00:58:47.160Z,6.78
2022-10-23T00:58:59.123Z,6.30
2022-10-23T00:59:11.529Z,6.07
2022-10-23T00:59:24.065Z,6.20
2022-10-23T00:59:36.149Z,6.07
2022-10-23T00:59:48.306Z,6.03
2022-10-23T01:00:00.310Z,5.75
2022-10-23T01:00:25.018Z,5.20
2022-10-23T01:00:45.614Z,4.30
2022-10-23T01:00:57.691Z,4.07
2022-10-23T01:01:18.303Z,4.40
2022-10-23T01:01:30.511Z,3.97
2022-10-23T01:01:42.775Z,3.95
2022-10-23T01:01:55.405Z,4.00
2022-10-23T01:02:08.086Z,4.80
2022-10-23T01:02:21.221Z,4.68
2022-10-23T01:02:33.439Z,4.38
2022-10-23T01:02:46.338Z,4.10
2022-10-23T01:02:58.732Z,3.83
2022-10-23T01:03:10.996Z,3.92
2022-10-23T01:03:27.499Z,4.32
2022-10-23T01:03:39.443Z,5.93
2022-10-23T01:03:52.005Z,5.97
2022-10-23T01:04:06.065Z,5.82
2022-10-23T01:04:18.845Z,5.68
2022-10-23T01:04:31.924Z,5.78
2022-10-23T01:04:44.399Z,5.97
2022-10-23T01:04:56.478Z,5.93
2022-10-23T01:05:09.050Z,5.93
2022-10-23T01:05:30.349Z,5.43
2022-10-23T01:05:54.297Z,4.80
2022-10-23T01:06:12.066Z,6.38
2022-10-23T01:06:38.470Z,6.05
2022-10-23T01:07:12.900Z,5.10
2022-10-23T01:07:37.123Z,4.28
2022-10-23T01:07:58.109Z,4.63
2022-10-23T01:08:29.803Z,5.47
2022-10-23T01:08:51.811Z,6.05
2022-10-23T01:09:48.622Z,5.93
2022-10-23T01:10:15.112Z,4.82
2022-10-23T01:10:50.039Z,5.13
2022-10-23T01:11:12.496Z,4.20
2022-10-23T01:11:33.377Z,3.70
2022-10-23T01:12:00.157Z,3.83
2022-10-23T01:12:40.055Z,4.28
2022-10-23T01:13:02.583Z,3.78
2022-10-23T01:13:23.766Z,3.20
2022-10-23T01:13:55.719Z,3.20
2022-10-23T01:14:37.869Z,3.75
2022-10-23T01:14:52.410Z,3.45
2022-10-23T01:15:32.061Z,3.47
2022-10-23T01:15:56.579Z,3.50
2022-10-23T01:16:11.039Z,3.60
2022-10-23T01:16:41.878Z,3.45
2022-10-23T01:17:24.301Z,3.10
2022-10-23T01:17:40.986Z,3.10
2022-10-23T01:18:04.902Z,2.88
2022-10-23T01:18:23.848Z,2.90
2022-10-23T01:18:46.888Z,3.03
2022-10-23T01:19:07.642Z,2.90
2022-10-23T01:19:42.722Z,2.80
2022-10-23T01:20:18.999Z,2.80
2022-10-23T01:20:36.651Z,2.78
2022-10-23T01:20:57.584Z,2.83
2022-10-23T01:21:15.849Z,3.28
2022-10-23T01:22:04.530Z,3.08
2022-10-23T01:22:48.177Z,3.17
2022-10-23T01:23:33.766Z,2.88
2022-10-23T01:23:54.460Z,2.80
2022-10-23T01:24:22.974Z,2.83
2022-10-23T01:24:59.564Z,2.80
2022-10-23T01:25:26.143Z,2.83
2022-10-23T01:25:56.795Z,2.60
2022-10-23T01:26:21.466Z,2.90
2022-10-23T01:26:45.292Z,2.70
2022-10-23T01:27:41.645Z,2.40
2022-10-23T01:28:01.639Z,2.83
2022-10-23T01:28:21.637Z,3.00
2022-10-23T01:28:36.329Z,2.60
2022-10-23T01:29:03.515Z,2.60
2022-10-23T01:29:20.079Z,2.75
2022-10-23T01:29:31.922Z,2.63
2022-10-23T01:29:49.667Z,2.60
2022-10-23T01:30:11.863Z,2.67
2022-10-23T01:30:23.898Z,2.70
2022-10-23T01:30:54.132Z,2.47
2022-10-23T01:31:12.108Z,2.30
2022-10-23T01:31:43.436Z,2.60
2022-10-23T01:32:12.962Z,2.77
2022-10-23T01:32:39.053Z,2.65
2022-10-23T01:33:00.576Z,2.50
2022-10-23T01:33:30.325Z,2.67
2022-10-23T01:33:49.032Z,2.90
2022-10-23T01:34:10.705Z,2.70
2022-10-23T01:34:33.691Z,2.50
2022-10-23T01:35:12.855Z,2.50
2022-10-23T01:35:37.771Z,2.60
2022-10-23T01:35:56.893Z,2.63
2022-10-23T01:36:14.327Z,2.67
2022-10-23T01:36:29.293Z,2.35
2022-10-23T01:36:46.832Z,2.30
2022-10-23T01:37:02.182Z,2.63
2022-10-23T01:37:19.840Z,2.80
2022-10-23T01:37:42.512Z,2.45
2022-10-23T01:37:58.034Z,2.50
2022-10-23T01:38:16.837Z,2.50
2022-10-23T01:38:41.777Z,2.60
2022-10-23T01:39:07.317Z,2.42
2022-10-23T01:39:25.399Z,2.72
2022-10-23T01:39:44.186Z,2.67
2022-10-23T01:40:02.961Z,2.50
2022-10-23T01:40:27.112Z,2.50
2022-10-23T01:40:55.630Z,2.58
2022-10-23T01:41:14.563Z,2.45
2022-10-23T01:41:32.615Z,2.42
2022-10-23T01:41:48.871Z,2.22
2022-10-23T01:42:19.004Z,2.38
2022-10-23T01:42:36.101Z,2.30
2022-10-23T01:42:53.077Z,2.47
2022-10-23T01:43:12.425Z,2.25
2022-10-23T01:43:30.202Z,2.47
2022-10-23T01:43:46.979Z,2.45
2022-10-23T01:44:16.062Z,2.28
2022-10-23T01:44:48.996Z,2.30
2022-10-23T01:45:16.082Z,2.28
2022-10-23T01:45:29.990Z,2.50
2022-10-23T01:45:53.242Z,2.50
2022-10-23T01:46:10.436Z,2.13
2022-10-23T01:46:24.959Z,2.42
2022-10-23T01:46:37.540Z,2.42
2022-10-23T01:46:52.586Z,2.38
2022-10-23T01:47:07.186Z,2.22
2022-10-23T01:47:23.667Z,2.33
2022-10-23T01:47:36.195Z,2.30
2022-10-23T01:47:49.527Z,2.15
2022-10-23T01:48:04.421Z,2.40
2022-10-23T01:48:21.536Z,2.40
2022-10-23T01:48:35.160Z,2.38
2022-10-23T01:48:52.573Z,2.50
2022-10-23T01:49:08.627Z,2.38
2022-10-23T01:49:22.735Z,2.33
2022-10-23T01:49:37.528Z,2.20
2022-10-23T01:49:51.441Z,2.28
2022-10-23T01:50:06.004Z,2.45
2022-10-23T01:50:20.459Z,2.50
2022-10-23T01:50:34.605Z,2.53
2022-10-23T01:50:47.034Z,2.30
2022-10-23T01:51:01.620Z,2.30
2022-10-23T01:51:15.546Z,2.50
2022-10-23T01:51:30.941Z,2.50
2022-10-23T01:51:48.773Z,2.50
2022-10-23T01:52:05.445Z,2.20
2022-10-23T01:52:19.847Z,2.10
2022-10-23T01:52:31.869Z,2.20
2022-10-23T01:52:43.955Z,2.30
2022-10-23T01:52:55.917Z,2.40
2022-10-23T01:53:08.145Z,2.60
2022-10-23T01:53:21.793Z,2.80
2022-10-23T01:53:38.422Z,2.50
2022-10-23T01:53:55.659Z,2.30
2022-10-23T01:54:12.384Z,2.30
2022-10-23T01:54:30.000Z,2.45
2022-10-23T01:54:44.949Z,2.50
2022-10-23T01:55:00.884Z,2.60
2022-10-23T01:55:13.974Z,2.70
2022-10-23T01:55:26.625Z,2.70
2022-10-23T01:55:59.144Z,2.75
2022-10-23T01:56:15.257Z,2.72
2022-10-23T01:56:30.931Z,2.45
2022-10-23T01:56:46.532Z,2.75
2022-10-23T01:56:59.297Z,2.80
2022-10-23T01:57:14.971Z,2.63
2022-10-23T01:57:31.234Z,2.70
2022-10-23T01:57:45.190Z,2.50
2022-10-23T01:57:58.617Z,2.40
2022-10-23T01:58:11.463Z,2.67
2022-10-23T01:58:26.389Z,2.70
2022-10-23T01:58:39.841Z,2.70
2022-10-23T01:58:55.317Z,2.55
2022-10-23T01:59:12.204Z,2.45
2022-10-23T01:59:36.740Z,2.70
2022-10-23T01:59:53.508Z,2.50
2022-10-23T02:00:11.873Z,2.78
2022-10-23T02:00:23.805Z,2.78
2022-10-23T02:00:39.809Z,2.70
2022-10-23T02:00:56.703Z,2.72
2022-10-23T02:01:11.487Z,2.53
2022-10-23T02:01:27.786Z,2.45
2022-10-23T02:01:44.243Z,2.47
2022-10-23T02:01:59.012Z,2.50
2022-10-23T02:02:13.400Z,2.42
2022-10-23T02:02:27.568Z,2.20
2022-10-23T02:02:43.517Z,2.15
2022-10-23T02:02:57.541Z,2.30
2022-10-23T02:03:10.559Z,2.55
2022-10-23T02:03:23.366Z,2.60
2022-10-23T02:03:37.277Z,2.55
2022-10-23T02:03:50.920Z,2.40
2022-10-23T02:04:07.038Z,2.30
2022-10-23T02:04:25.617Z,2.85
2022-10-23T02:04:42.261Z,2.67
2022-10-23T02:05:18.433Z,2.10
2022-10-23T02:05:31.220Z,2.20
2022-10-23T02:05:44.195Z,2.58
2022-10-23T02:05:56.186Z,2.80
2022-10-23T02:06:08.305Z,2.95
2022-10-23T02:06:20.359Z,2.50
2022-10-23T02:06:32.598Z,2.58
2022-10-23T02:06:44.495Z,2.50
2022-10-23T02:06:56.728Z,2.38
2022-10-23T02:07:08.987Z,2.33
2022-10-23T02:07:21.193Z,2.20
2022-10-23T02:07:34.177Z,2.40
2022-10-23T02:07:46.541Z,2.50
2022-10-23T02:08:00.553Z,2.40
2022-10-23T02:08:12.748Z,2.20
2022-10-23T02:08:25.788Z,2.20
2022-10-23T02:08:38.147Z,2.20
2022-10-23T02:08:50.628Z,2.17
2022-10-23T02:09:03.215Z,2.10
2022-10-23T02:09:15.540Z,2.30
2022-10-23T02:09:27.714Z,2.45
2022-10-23T02:09:39.976Z,2.45
2022-10-23T02:09:52.202Z,2.40
2022-10-23T02:10:06.247Z,2.55
2022-10-23T02:10:19.726Z,2.70
2022-10-23T02:10:57.155Z,2.50
2022-10-23T02:11:09.055Z,2.30
2022-10-23T02:11:21.777Z,2.35
2022-10-23T02:11:42.468Z,2.33
2022-10-23T02:12:02.726Z,2.20
2022-10-23T02:12:24.642Z,2.50
2022-10-23T02:13:01.000Z,2.63
2022-10-23T02:13:25.539Z,2.55
2022-10-23T02:13:37.435Z,2.10
2022-10-23T02:14:10.167Z,2.13
2022-10-23T02:14:35.319Z,2.30
2022-10-23T02:15:00.136Z,2.40
2022-10-23T02:15:26.628Z,2.33
2022-10-23T02:15:48.893Z,2.15
2022-10-23T02:16:20.021Z,2.30
2022-10-23T02:16:44.309Z,2.20
2022-10-23T02:17:06.471Z,2.38
2022-10-23T02:17:45.780Z,2.30
2022-10-23T02:18:29.918Z,2.40
2022-10-23T02:18:52.463Z,2.20
2022-10-23T02:19:24.785Z,2.70
2022-10-23T02:20:12.562Z,2.30
2022-10-23T02:20:27.517Z,2.20
2022-10-23T02:21:05.008Z,2.30
2022-10-23T02:21:23.272Z,2.10
2022-10-23T02:21:41.259Z,2.30
2022-10-23T02:21:59.027Z,2.25
2022-10-23T02:22:14.952Z,2.33
2022-10-23T02:22:35.178Z,2.30
2022-10-23T02:23:00.108Z,2.10
2022-10-23T02:23:20.947Z,2.20
2022-10-23T02:23:38.460Z,2.30
2022-10-23T02:24:02.989Z,2.28
2022-10-23T02:24:21.194Z,2.38
2022-10-23T02:24:39.417Z,2.13
2022-10-23T02:24:51.276Z,2.08
2022-10-23T02:25:11.237Z,2.10
2022-10-23T02:25:33.807Z,2.30
2022-10-23T02:25:57.270Z,2.30
2022-10-23T02:26:12.043Z,2.33
2022-10-23T02:26:29.793Z,2.25
2022-10-23T02:26:49.693Z,2.28
2022-10-23T02:27:05.357Z,2.40
2022-10-23T02:27:24.396Z,2.30
2022-10-23T02:27:44.950Z,2.35
2022-10-23T02:28:01.080Z,2.40
2022-10-23T02:28:17.907Z,2.15
2022-10-23T02:28:37.666Z,2.30
2022-10-23T02:28:53.665Z,2.20
2022-10-23T02:29:27.697Z,2.10
2022-10-23T02:29:51.832Z,2.30
2022-10-23T02:30:08.076Z,2.30
2022-10-23T02:30:20.536Z,2.20
2022-10-23T02:30:35.683Z,2.00
2022-10-23T02:30:50.403Z,2.10
2022-10-23T02:31:05.385Z,2.13
2022-10-23T02:31:21.443Z,2.00
2022-10-23T02:31:33.687Z,1.98
2022-10-23T02:31:45.907Z,2.10
2022-10-23T02:31:57.897Z,2.35
2022-10-23T02:32:11.287Z,2.45
2022-10-23T02:32:26.592Z,2.42
2022-10-23T02:32:44.951Z,2.20
2022-10-23T02:32:58.329Z,2.30
2022-10-23T02:33:12.268Z,2.40
2022-10-23T02:33:27.439Z,2.35
2022-10-23T02:33:39.692Z,2.40
2022-10-23T02:33:51.802Z,2.40
2022-10-23T02:34:04.130Z,2.30
2022-10-23T02:34:16.334Z,2.17
2022-10-23T02:34:28.457Z,2.10
2022-10-23T02:34:40.650Z,2.10
2022-10-23T02:34:52.943Z,2.20
2022-10-23T02:35:05.700Z,2.20
2022-10-23T02:35:20.056Z,2.20
2022-10-23T02:35:32.185Z,2.22
2022-10-23T02:35:45.014Z,2.28
2022-10-23T02:35:57.129Z,2.30
2022-10-23T02:36:09.526Z,2.30
2022-10-23T02:36:21.598Z,2.20
2022-10-23T02:36:33.644Z,2.15
2022-10-23T02:36:46.184Z,2.10
2022-10-23T02:36:58.201Z,2.30
2022-10-23T02:37:10.151Z,2.30
2022-10-23T02:37:34.415Z,2.20
2022-10-23T02:37:54.071Z,2.10
2022-10-23T02:38:29.730Z,2.17
2022-10-23T02:38:43.921Z,2.20
2022-10-23T02:38:55.921Z,2.00
2022-10-23T02:39:07.884Z,2.17
2022-10-23T02:39:24.488Z,2.28
2022-10-23T02:39:36.595Z,2.20
2022-10-23T02:39:49.192Z,2.50
2022-10-23T02:40:01.261Z,2.60
2022-10-23T02:40:13.267Z,2.20
2022-10-23T02:40:34.300Z,2.28
2022-10-23T02:40:47.265Z,2.30
2022-10-23T02:41:19.072Z,2.20
2022-10-23T02:41:41.071Z,2.25
2022-10-23T02:42:00.214Z,2.22
2022-10-23T02:42:34.063Z,2.20
2022-10-23T02:43:00.118Z,2.25
2022-10-23T02:43:22.982Z,2.20
2022-10-23T02:43:43.559Z,2.30
2022-10-23T02:44:25.226Z,2.30
2022-10-23T02:44:55.382Z,2.42
2022-10-23T02:45:17.630Z,2.30
2022-10-23T02:46:20.226Z,2.20
2022-10-23T02:46:45.591Z,2.00
2022-10-23T02:47:10.573Z,2.00
2022-10-23T02:47:25.315Z,2.25
2022-10-23T02:48:01.786Z,2.25
2022-10-23T02:48:25.585Z,2.03
2022-10-23T02:48:46.275Z,2.33
2022-10-23T02:49:11.994Z,2.08
2022-10-23T02:49:26.172Z,2.00
2022-10-23T02:49:49.164Z,2.05
2022-10-23T02:50:03.993Z,2.13
2022-10-23T02:50:24.450Z,2.30
2022-10-23T02:50:54.854Z,2.10
2022-10-23T02:51:18.136Z,2.10
2022-10-23T02:51:49.954Z,2.40
2022-10-23T02:52:24.153Z,2.30
2022-10-23T02:53:13.291Z,2.10
2022-10-23T02:53:53.667Z,2.40
2022-10-23T02:54:08.417Z,2.30
2022-10-23T02:54:29.403Z,2.10
2022-10-23T02:55:07.295Z,2.10
2022-10-23T02:55:41.419Z,2.25
2022-10-23T02:56:11.914Z,2.25
2022-10-23T02:56:44.256Z,2.20
2022-10-23T02:57:11.210Z,2.15
2022-10-23T02:57:43.041Z,2.28
2022-10-23T02:58:04.123Z,2.28
2022-10-23T02:58:40.684Z,2.20
2022-10-23T02:59:21.388Z,2.33
2022-10-23T02:59:59.210Z,2.20
2022-10-23T03:00:20.000Z,2.42
2022-10-23T03:00:34.407Z,2.28
2022-10-23T03:00:52.558Z,2.08
2022-10-23T03:01:11.446Z,2.30
2022-10-23T03:01:29.157Z,2.47
2022-10-23T03:01:49.646Z,2.40
2022-10-23T03:02:11.894Z,2.22
2022-10-23T03:02:36.485Z,2.00
2022-10-23T03:03:15.361Z,2.20
2022-10-23T03:03:32.733Z,2.38
2022-10-23T03:04:00.669Z,2.40
2022-10-23T03:04:14.892Z,2.28
2022-10-23T03:04:28.561Z,2.30
2022-10-23T03:04:42.835Z,2.28
2022-10-23T03:04:56.464Z,2.20
2022-10-23T03:05:12.459Z,2.15
2022-10-23T03:05:29.823Z,2.20
2022-10-23T03:05:44.806Z,2.28
2022-10-23T03:05:56.897Z,2.30
2022-10-23T03:06:09.067Z,2.50
2022-10-23T03:06:22.776Z,2.38
2022-10-23T03:06:34.846Z,2.05
2022-10-23T03:06:47.622Z,2.00
2022-10-23T03:06:59.788Z,2.05
2022-10-23T03:07:13.953Z,2.10
2022-10-23T03:07:26.514Z,2.17
2022-10-23T03:07:40.299Z,2.22
2022-10-23T03:07:52.870Z,2.30
2022-10-23T03:08:09.862Z,2.20
2022-10-23T03:08:22.463Z,2.20
2022-10-23T03:08:45.202Z,2.40
2022-10-23T03:09:04.470Z,2.05
2022-10-23T03:09:16.498Z,2.00
2022-10-23T03:09:28.595Z,2.15
2022-10-23T03:09:40.945Z,2.40
2022-10-23T03:09:52.953Z,2.40
2022-10-23T03:10:05.524Z,2.50
2022-10-23T03:10:17.753Z,2.40
2022-10-23T03:10:29.722Z,2.20
2022-10-23T03:10:42.701Z,2.10
2022-10-23T03:10:54.738Z,2.25
2022-10-23T03:11:06.655Z,2.25
2022-10-23T03:11:18.585Z,2.33
2022-10-23T03:11:30.674Z,2.40
2022-10-23T03:11:42.671Z,2.40
2022-10-23T03:11:54.734Z,2.35
2022-10-23T03:12:06.818Z,2.25
2022-10-23T03:12:18.807Z,2.25
2022-10-23T03:12:30.942Z,2.25
2022-10-23T03:12:43.344Z,2.42
2022-10-23T03:12:55.487Z,2.40
2022-10-23T03:13:09.364Z,2.35
2022-10-23T03:13:21.541Z,2.30
2022-10-23T03:13:33.470Z,2.20
2022-10-23T03:13:45.561Z,2.10
2022-10-23T03:13:57.585Z,2.10
2022-10-23T03:14:13.720Z,2.20
2022-10-23T03:14:25.735Z,2.30
2022-10-23T03:14:37.752Z,2.30
2022-10-23T03:14:49.957Z,2.30
2022-10-23T03:15:02.255Z,2.28
2022-10-23T03:15:15.292Z,2.28
2022-10-23T03:15:27.274Z,2.33
2022-10-23T03:15:39.262Z,2.35
2022-10-23T03:15:51.252Z,2.50
2022-10-23T03:16:03.233Z,2.42
2022-10-23T03:16:15.495Z,2.33
2022-10-23T03:16:27.603Z,2.40
2022-10-23T03:16:39.679Z,2.30
2022-10-23T03:16:51.584Z,2.30
2022-10-23T03:17:04.395Z,2.35
2022-10-23T03:17:16.441Z,2.38
2022-10-23T03:17:28.432Z,2.40
2022-10-23T03:17:40.464Z,2.20
2022-10-23T03:17:52.396Z,2.20
2022-10-23T03:18:04.349Z,2.30
2022-10-23T03:18:16.321Z,2.25
2022-10-23T03:18:28.405Z,2.20
2022-10-23T03:18:40.403Z,2.30
2022-10-23T03:18:52.381Z,2.38
2022-10-23T03:19:04.478Z,2.33
2022-10-23T03:19:16.419Z,2.28
2022-10-23T03:19:28.377Z,2.20
2022-10-23T03:19:40.301Z,2.17
2022-10-23T03:19:52.318Z,2.17
2022-10-23T03:20:06.035Z,2.10
2022-10-23T03:20:18.444Z,2.20
2022-10-23T03:20:30.437Z,2.20
2022-10-23T03:20:42.344Z,2.20
2022-10-23T03:20:54.269Z,2.13
2022-10-23T03:21:06.279Z,2.30
2022-10-23T03:21:18.378Z,2.33
2022-10-23T03:21:30.322Z,2.33
2022-10-23T03:21:42.289Z,2.22
2022-10-23T03:21:54.945Z,2.20
2022-10-23T03:22:06.938Z,2.22
2022-10-23T03:22:18.901Z,2.20
2022-10-23T03:22:31.023Z,2.30
2022-10-23T03:22:43.203Z,2.15
2022-10-23T03:22:55.386Z,2.30
2022-10-23T03:23:07.302Z,2.22
2022-10-23T03:23:19.276Z,2.22
2022-10-23T03:23:31.190Z,2.25
2022-10-23T03:23:43.146Z,2.28
2022-10-23T03:23:55.153Z,2.33
2022-10-23T03:24:07.277Z,2.28
2022-10-23T03:24:19.296Z,2.20
2022-10-23T03:24:31.237Z,2.35
2022-10-23T03:24:43.247Z,2.25
2022-10-23T03:24:55.189Z,2.30
2022-10-23T03:25:07.693Z,2.35
2022-10-23T03:25:19.646Z,2.22
2022-10-23T03:25:31.582Z,1.95
2022-10-23T03:25:43.559Z,2.05
2022-10-23T03:25:56.463Z,2.10
2022-10-23T03:26:08.444Z,2.17
2022-10-23T03:26:20.682Z,2.13
2022-10-23T03:26:32.623Z,2.22
2022-10-23T03:26:44.635Z,2.40
2022-10-23T03:26:56.690Z,2.40
2022-10-23T03:27:08.771Z,2.25
2022-10-23T03:27:20.772Z,2.20
2022-10-23T03:27:33.123Z,2.15
2022-10-23T03:27:45.046Z,2.10
2022-10-23T03:27:57.008Z,2.10
2022-10-23T03:28:08.911Z,2.10
2022-10-23T03:28:20.856Z,2.20
2022-10-23T03:28:32.840Z,2.25
2022-10-23T03:28:44.792Z,2.20
2022-10-23T03:28:56.700Z,2.20
2022-10-23T03:29:08.619Z,2.17
2022-10-23T03:29:20.815Z,2.35
2022-10-23T03:29:32.829Z,2.30
2022-10-23T03:29:44.763Z,2.40
2022-10-23T03:29:56.777Z,2.33
2022-10-23T03:30:09.500Z,2.30
2022-10-23T03:30:21.610Z,2.30
2022-10-23T03:30:33.549Z,2.28
2022-10-23T03:30:45.520Z,2.10
2022-10-23T03:30:57.504Z,2.20
2022-10-23T03:31:09.434Z,2.13
2022-10-23T03:31:21.394Z,2.20
2022-10-23T03:31:33.297Z,2.28
2022-10-23T03:31:45.285Z,2.30
2022-10-23T03:31:57.196Z,2.20
2022-10-23T03:32:09.366Z,2.03
2022-10-23T03:32:21.330Z,2.15
2022-10-23T03:32:33.552Z,2.35
2022-10-23T03:32:45.779Z,2.33
2022-10-23T03:32:57.926Z,2.38
2022-10-23T03:33:09.903Z,2.35
2022-10-23T03:33:22.122Z,2.30
2022-10-23T03:33:34.053Z,2.20
2022-10-23T03:33:45.984Z,2.10
2022-10-23T03:33:58.019Z,2.10
2022-10-23T03:34:11.288Z,2.17
2022-10-23T03:34:23.362Z,2.30
2022-10-23T03:34:35.376Z,2.40
2022-10-23T03:34:47.287Z,2.45
2022-10-23T03:34:59.221Z,2.40
2022-10-23T03:35:11.229Z,2.20
2022-10-23T03:35:23.212Z,2.20
2022-10-23T03:35:35.505Z,2.17
2022-10-23T03:36:05.892Z,2.17
2022-10-23T03:36:17.884Z,2.30
2022-10-23T03:36:29.827Z,2.40
2022-10-23T03:36:41.942Z,2.45
2022-10-23T03:36:53.856Z,2.50
2022-10-23T03:37:05.916Z,2.55
2022-10-23T03:37:17.942Z,2.53
2022-10-23T03:37:29.860Z,2.28
2022-10-23T03:37:41.976Z,2.33
2022-10-23T03:37:54.072Z,2.38
2022-10-23T03:38:06.171Z,2.40